sensor_id;sensor_type;location;lat;lon;timestamp;pressure;altitude;pressure_sealevel;temperature;humidity
80945;BME280;70400;50.934;11.590;2023-12-07T00:00:32;100299.97;;;2.47;86.96
80945;BME280;70400;50.934;11.590;2023-12-07T00:01:23;100296.66;;;2.44;86.96
80945;BME280;70400;50.934;11.590;2023-12-07T00:02:14;100299.38;;;2.42;87.11
80945;BME280;70400;50.934;11.590;2023-12-07T00:03:05;100302.88;;;2.41;86.50
80945;BME280;70400;50.934;11.590;2023-12-07T00:03:58;100295.91;;;2.42;86.56
80945;BME280;70400;50.934;11.590;2023-12-07T00:04:49;100294.25;;;2.41;87.14
80945;BME280;70400;50.934;11.590;2023-12-07T00:05:40;100299.38;;;2.42;87.32
80945;BME280;70400;50.934;11.590;2023-12-07T00:06:32;100294.41;;;2.37;87.18
80945;BME280;70400;50.934;11.590;2023-12-07T00:07:22;100299.09;;;2.31;87.54
80945;BME280;70400;50.934;11.590;2023-12-07T00:08:13;100297.31;;;2.31;87.54
80945;BME280;70400;50.934;11.590;2023-12-07T00:09:04;100303.13;;;2.36;87.49
80945;BME280;70400;50.934;11.590;2023-12-07T00:09:55;100307.66;;;2.33;87.80
80945;BME280;70400;50.934;11.590;2023-12-07T00:10:46;100307.00;;;2.29;87.41
80945;BME280;70400;50.934;11.590;2023-12-07T00:11:39;100304.53;;;2.26;87.32
80945;BME280;70400;50.934;11.590;2023-12-07T00:12:30;100301.22;;;2.40;87.70
80945;BME280;70400;50.934;11.590;2023-12-07T00:13:21;100306.19;;;2.45;87.59
80945;BME280;70400;50.934;11.590;2023-12-07T00:14:12;100305.22;;;2.46;87.33
80945;BME280;70400;50.934;11.590;2023-12-07T00:15:04;100309.84;;;2.41;87.16
80945;BME280;70400;50.934;11.590;2023-12-07T00:15:55;100308.19;;;2.39;87.19
80945;BME280;70400;50.934;11.590;2023-12-07T00:16:46;100310.44;;;2.46;87.49
80945;BME280;70400;50.934;11.590;2023-12-07T00:17:37;100305.41;;;2.43;87.24
80945;BME280;70400;50.934;11.590;2023-12-07T00:18:28;100308.84;;;2.43;87.45
80945;BME280;70400;50.934;11.590;2023-12-07T00:19:19;100310.69;;;2.41;87.16
80945;BME280;70400;50.934;11.590;2023-12-07T00:20:10;100311.53;;;2.42;87.29
80945;BME280;70400;50.934;11.590;2023-12-07T00:21:01;100316.00;;;2.39;87.34
80945;BME280;70400;50.934;11.590;2023-12-07T00:21:52;100317.00;;;2.37;87.52
80945;BME280;70400;50.934;11.590;2023-12-07T00:22:43;100308.19;;;2.39;87.61
80945;BME280;70400;50.934;11.590;2023-12-07T00:23:34;100310.69;;;2.41;87.67
80945;BME280;70400;50.934;11.590;2023-12-07T00:24:25;100314.28;;;2.38;87.38
80945;BME280;70400;50.934;11.590;2023-12-07T00:25:15;100305.41;;;2.43;86.86
80945;BME280;70400;50.934;11.590;2023-12-07T00:26:06;100316.59;;;2.45;87.05
80945;BME280;70400;50.934;11.590;2023-12-07T00:26:57;100306.41;;;2.40;87.30
80945;BME280;70400;50.934;11.590;2023-12-07T00:27:49;100314.28;;;2.38;86.90
80945;BME280;70400;50.934;11.590;2023-12-07T00:28:39;100307.19;;;2.42;87.53
80945;BME280;70400;50.934;11.590;2023-12-07T00:29:30;100306.47;;;2.38;87.39
80945;BME280;70400;50.934;11.590;2023-12-07T00:30:22;100309.78;;;2.42;87.83
80945;BME280;70400;50.934;11.590;2023-12-07T00:31:12;100307.31;;;2.39;87.70
80945;BME280;70400;50.934;11.590;2023-12-07T00:32:04;100317.91;;;2.36;87.74
80945;BME280;70400;50.934;11.590;2023-12-07T00:32:55;100313.63;;;2.35;88.05
80945;BME280;70400;50.934;11.590;2023-12-07T00:33:46;100314.22;;;2.40;87.66
80945;BME280;70400;50.934;11.590;2023-12-07T00:34:37;100313.63;;;2.35;87.50
80945;BME280;70400;50.934;11.590;2023-12-07T00:35:28;100320.34;;;2.39;87.48
80945;BME280;70400;50.934;11.590;2023-12-07T00:36:20;100322.69;;;2.44;87.36
80945;BME280;70400;50.934;11.590;2023-12-07T00:37:10;100318.00;;;2.34;87.77
80945;BME280;70400;50.934;11.590;2023-12-07T00:38:02;100321.44;;;2.35;87.69
80945;BME280;70400;50.934;11.590;2023-12-07T00:38:53;100325.81;;;2.34;87.77
80945;BME280;70400;50.934;11.590;2023-12-07T00:39:44;100321.69;;;2.30;87.95
80945;BME280;70400;50.934;11.590;2023-12-07T00:40:35;100319.66;;;2.35;87.82
80945;BME280;70400;50.934;11.590;2023-12-07T00:41:28;100329.59;;;2.45;88.08
80945;BME280;70400;50.934;11.590;2023-12-07T00:42:18;100316.47;;;2.46;87.60
80945;BME280;70400;50.934;11.590;2023-12-07T00:43:09;100324.56;;;2.57;87.60
80945;BME280;70400;50.934;11.590;2023-12-07T00:44:00;100330.13;;;2.67;86.69
80945;BME280;70400;50.934;11.590;2023-12-07T00:44:51;100331.84;;;2.51;86.75
80945;BME280;70400;50.934;11.590;2023-12-07T00:45:42;100324.63;;;2.40;87.20
80945;BME280;70400;50.934;11.590;2023-12-07T00:46:33;100330.44;;;2.45;87.46
80945;BME280;70400;50.934;11.590;2023-12-07T00:47:24;100326.00;;;2.47;87.55
80945;BME280;70400;50.934;11.590;2023-12-07T00:48:15;100323.28;;;2.49;87.75
80945;BME280;70400;50.934;11.590;2023-12-07T00:49:05;100318.84;;;2.51;87.61
80945;BME280;70400;50.934;11.590;2023-12-07T00:49:56;100322.38;;;2.50;87.53
80945;BME280;70400;50.934;11.590;2023-12-07T00:50:47;100318.31;;;2.44;87.72
80945;BME280;70400;50.934;11.590;2023-12-07T00:51:38;100326.22;;;2.43;88.14
80945;BME280;70400;50.934;11.590;2023-12-07T00:52:29;100326.00;;;2.47;88.15
80945;BME280;70400;50.934;11.590;2023-12-07T00:53:20;100331.34;;;2.44;87.89
80945;BME280;70400;50.934;11.590;2023-12-07T00:54:11;100329.91;;;2.38;87.98
80945;BME280;70400;50.934;11.590;2023-12-07T00:55:01;100330.50;;;2.44;88.07
80945;BME280;70400;50.934;11.590;2023-12-07T00:56:03;100335.88;;;2.41;87.96
80945;BME280;70400;50.934;11.590;2023-12-07T00:56:53;100326.22;;;2.43;87.95
80945;BME280;70400;50.934;11.590;2023-12-07T00:57:44;100326.56;;;2.52;87.99
80945;BME280;70400;50.934;11.590;2023-12-07T00:58:35;100327.41;;;2.53;87.51
80945;BME280;70400;50.934;11.590;2023-12-07T00:59:27;100330.50;;;2.44;87.27
80945;BME280;70400;50.934;11.590;2023-12-07T01:00:17;100334.09;;;2.41;87.37
80945;BME280;70400;50.934;11.590;2023-12-07T01:01:09;100329.00;;;2.39;87.43
80945;BME280;70400;50.934;11.590;2023-12-07T01:02:00;100339.41;;;2.39;87.61
80945;BME280;70400;50.934;11.590;2023-12-07T01:02:52;100333.44;;;2.37;87.81
80945;BME280;70400;50.934;11.590;2023-12-07T01:03:42;100335.94;;;2.39;87.44
80945;BME280;70400;50.934;11.590;2023-12-07T01:04:34;100336.34;;;2.31;87.90
80945;BME280;70400;50.934;11.590;2023-12-07T01:05:25;100334.34;;;2.36;88.06
80945;BME280;70400;50.934;11.590;2023-12-07T01:06:16;100336.13;;;2.36;87.90
80945;BME280;70400;50.934;11.590;2023-12-07T01:07:07;100339.41;;;2.39;87.66
80945;BME280;70400;50.934;11.590;2023-12-07T01:07:58;100342.25;;;2.35;88.13
80945;BME280;70400;50.934;11.590;2023-12-07T01:08:49;100346.78;;;2.31;87.93
80945;BME280;70400;50.934;11.590;2023-12-07T01:09:40;100342.44;;;2.32;88.18
80945;BME280;70400;50.934;11.590;2023-12-07T01:10:31;100342.50;;;2.46;88.17
80945;BME280;70400;50.934;11.590;2023-12-07T01:11:23;100341.84;;;2.43;87.47
80945;BME280;70400;50.934;11.590;2023-12-07T01:12:13;100345.34;;;2.42;87.49
80945;BME280;70400;50.934;11.590;2023-12-07T01:13:04;100346.94;;;2.44;87.62
80945;BME280;70400;50.934;11.590;2023-12-07T01:13:56;100344.44;;;2.43;87.33
80945;BME280;70400;50.934;11.590;2023-12-07T01:14:47;100355.69;;;2.43;87.53
80945;BME280;70400;50.934;11.590;2023-12-07T01:15:38;100347.66;;;2.48;87.49
80945;BME280;70400;50.934;11.590;2023-12-07T01:16:28;100354.03;;;2.42;87.47
80945;BME280;70400;50.934;11.590;2023-12-07T01:17:19;100350.41;;;2.45;87.76
80945;BME280;70400;50.934;11.590;2023-12-07T01:18:10;100354.44;;;2.50;87.84
80945;BME280;70400;50.934;11.590;2023-12-07T01:19:01;100360.56;;;2.49;87.32
80945;BME280;70400;50.934;11.590;2023-12-07T01:19:52;100360.91;;;2.43;87.54
80945;BME280;70400;50.934;11.590;2023-12-07T01:20:43;100362.44;;;2.47;87.78
80945;BME280;70400;50.934;11.590;2023-12-07T01:21:34;100359.97;;;2.44;87.44
80945;BME280;70400;50.934;11.590;2023-12-07T01:22:24;100369.66;;;2.42;87.70
80945;BME280;70400;50.934;11.590;2023-12-07T01:23:16;100369.47;;;2.45;87.05
80945;BME280;70400;50.934;11.590;2023-12-07T01:24:07;100365.44;;;2.39;86.92
80945;BME280;70400;50.934;11.590;2023-12-07T01:25:06;100363.56;;;2.42;87.21
80945;BME280;70400;50.934;11.590;2023-12-07T01:25:57;100369.38;;;2.47;87.06
80945;BME280;70400;50.934;11.590;2023-12-07T01:26:48;100362.50;;;2.46;86.88
80945;BME280;70400;50.934;11.590;2023-12-07T01:27:39;100372.91;;;2.46;87.31
80945;BME280;70400;50.934;11.590;2023-12-07T01:28:30;100374.44;;;2.50;86.60
80945;BME280;70400;50.934;11.590;2023-12-07T01:29:22;100373.50;;;2.51;85.96
80945;BME280;70400;50.934;11.590;2023-12-07T01:30:13;100380.31;;;2.53;86.03
80945;BME280;70400;50.934;11.590;2023-12-07T01:31:04;100371.56;;;2.54;85.82
80945;BME280;70400;50.934;11.590;2023-12-07T01:31:55;100375.94;;;2.54;85.86
80945;BME280;70400;50.934;11.590;2023-12-07T01:32:46;100373.44;;;2.52;85.89
80945;BME280;70400;50.934;11.590;2023-12-07T01:33:38;100375.09;;;2.53;85.99
80945;BME280;70400;50.934;11.590;2023-12-07T01:34:29;100379.13;;;2.59;85.72
80945;BME280;70400;50.934;11.590;2023-12-07T01:35:20;100376.53;;;2.59;85.62
80945;BME280;70400;50.934;11.590;2023-12-07T01:36:11;100374.69;;;2.61;85.61
80945;BME280;70400;50.934;11.590;2023-12-07T01:37:02;100381.75;;;2.59;85.69
80945;BME280;70400;50.934;11.590;2023-12-07T01:37:53;100376.88;;;2.53;85.58
80945;BME280;70400;50.934;11.590;2023-12-07T01:38:44;100382.06;;;2.53;85.37
80945;BME280;70400;50.934;11.590;2023-12-07T01:39:35;100378.38;;;2.57;85.96
80945;BME280;70400;50.934;11.590;2023-12-07T01:40:26;100377.72;;;2.53;85.75
80945;BME280;70400;50.934;11.590;2023-12-07T01:41:17;100381.06;;;2.55;85.60
80945;BME280;70400;50.934;11.590;2023-12-07T01:42:09;100382.69;;;2.58;85.62
80945;BME280;70400;50.934;11.590;2023-12-07T01:43:00;100375.44;;;2.63;85.45
80945;BME280;70400;50.934;11.590;2023-12-07T01:43:50;100384.94;;;2.64;85.27
80945;BME280;70400;50.934;11.590;2023-12-07T01:44:41;100378.66;;;2.68;84.95
80945;BME280;70400;50.934;11.590;2023-12-07T01:45:32;100385.03;;;2.63;85.07
80945;BME280;70400;50.934;11.590;2023-12-07T01:46:23;100380.91;;;2.58;85.39
80945;BME280;70400;50.934;11.590;2023-12-07T01:47:14;100386.94;;;2.59;85.36
80945;BME280;70400;50.934;11.590;2023-12-07T01:48:06;100394.69;;;2.60;85.62
80945;BME280;70400;50.934;11.590;2023-12-07T01:48:57;100392.00;;;2.62;85.38
80945;BME280;70400;50.934;11.590;2023-12-07T01:49:48;100388.78;;;2.57;85.45
80945;BME280;70400;50.934;11.590;2023-12-07T01:50:39;100386.94;;;2.59;85.31
80945;BME280;70400;50.934;11.590;2023-12-07T01:51:30;100390.47;;;2.58;85.79
80945;BME280;70400;50.934;11.590;2023-12-07T01:52:22;100394.84;;;2.57;85.26
80945;BME280;70400;50.934;11.590;2023-12-07T01:53:16;100391.38;;;2.57;85.59
80945;BME280;70400;50.934;11.590;2023-12-07T01:54:07;100397.63;;;2.70;85.40
80945;BME280;70400;50.934;11.590;2023-12-07T01:54:59;100396.81;;;2.70;84.73
80945;BME280;70400;50.934;11.590;2023-12-07T01:55:51;100398.97;;;2.61;85.11
80945;BME280;70400;50.934;11.590;2023-12-07T01:56:43;100398.06;;;2.63;85.27
80945;BME280;70400;50.934;11.590;2023-12-07T01:57:35;100399.06;;;2.60;85.27
80945;BME280;70400;50.934;11.590;2023-12-07T01:58:25;100399.06;;;2.60;85.32
80945;BME280;70400;50.934;11.590;2023-12-07T01:59:16;100401.56;;;2.61;85.22
80945;BME280;70400;50.934;11.590;2023-12-07T02:00:08;100401.56;;;2.61;85.67
80945;BME280;70400;50.934;11.590;2023-12-07T02:01:00;100400.72;;;2.61;85.36
80945;BME280;70400;50.934;11.590;2023-12-07T02:01:52;100404.16;;;2.61;85.28
80945;BME280;70400;50.934;11.590;2023-12-07T02:02:44;100406.47;;;2.68;84.82
80945;BME280;70400;50.934;11.590;2023-12-07T02:03:35;100397.28;;;2.76;84.71
80945;BME280;70400;50.934;11.590;2023-12-07T02:04:27;100408.72;;;2.74;84.83
80945;BME280;70400;50.934;11.590;2023-12-07T02:05:18;100401.19;;;2.85;84.65
80945;BME280;70400;50.934;11.590;2023-12-07T02:06:09;100396.22;;;2.80;84.83
80945;BME280;70400;50.934;11.590;2023-12-07T02:07:01;100401.50;;;2.79;84.92
80945;BME280;70400;50.934;11.590;2023-12-07T02:07:52;100404.69;;;2.68;85.04
80945;BME280;70400;50.934;11.590;2023-12-07T02:08:43;100408.72;;;2.74;85.00
80945;BME280;70400;50.934;11.590;2023-12-07T02:09:34;100414.09;;;2.71;84.67
80945;BME280;70400;50.934;11.590;2023-12-07T02:10:25;100412.84;;;2.62;85.46
80945;BME280;70400;50.934;11.590;2023-12-07T02:11:16;100415.31;;;2.48;85.81
80945;BME280;70400;50.934;11.590;2023-12-07T02:12:07;100412.47;;;2.52;85.50
80945;BME280;70400;50.934;11.590;2023-12-07T02:12:58;100409.78;;;2.54;85.84
80945;BME280;70400;50.934;11.590;2023-12-07T02:13:49;100418.34;;;2.56;86.26
80945;BME280;70400;50.934;11.590;2023-12-07T02:14:41;100416.81;;;2.52;86.16
80945;BME280;70400;50.934;11.590;2023-12-07T02:15:32;100416.00;;;2.51;85.72
80945;BME280;70400;50.934;11.590;2023-12-07T02:16:35;100416.91;;;2.50;86.04
80945;BME280;70400;50.934;11.590;2023-12-07T02:18:52;100415.16;;;2.51;85.82
80945;BME280;70400;50.934;11.590;2023-12-07T02:21:25;100425.97;;;2.43;86.51
80945;BME280;70400;50.934;11.590;2023-12-07T02:22:25;100413.50;;;2.50;86.21
80945;BME280;70400;50.934;11.590;2023-12-07T02:23:18;100413.63;;;2.47;85.82
80945;BME280;70400;50.934;11.590;2023-12-07T02:24:33;100417.72;;;2.35;86.67
80945;BME280;70400;50.934;11.590;2023-12-07T02:25:36;100423.22;;;2.29;86.93
80945;BME280;70400;50.934;11.590;2023-12-07T02:26:34;100412.69;;;2.32;86.59
80945;BME280;70400;50.934;11.590;2023-12-07T02:27:44;100419.78;;;2.28;86.97
80945;BME280;70400;50.934;11.590;2023-12-07T02:28:38;100417.03;;;2.31;86.98
80945;BME280;70400;50.934;11.590;2023-12-07T02:29:29;100423.16;;;2.30;87.28
80945;BME280;70400;50.934;11.590;2023-12-07T02:30:20;100423.41;;;2.26;86.92
80945;BME280;70400;50.934;11.590;2023-12-07T02:31:11;100426.09;;;2.24;86.89
80945;BME280;70400;50.934;11.590;2023-12-07T02:32:02;100436.41;;;2.26;87.54
80945;BME280;70400;50.934;11.590;2023-12-07T02:32:53;100431.91;;;2.29;87.62
80945;BME280;70400;50.934;11.590;2023-12-07T02:33:44;100422.41;;;2.28;87.25
80945;BME280;70400;50.934;11.590;2023-12-07T02:34:35;100419.97;;;2.25;87.26
80945;BME280;70400;50.934;11.590;2023-12-07T02:35:26;100414.53;;;2.30;86.83
80945;BME280;70400;50.934;11.590;2023-12-07T02:36:19;100419.63;;;2.31;86.37
80945;BME280;70400;50.934;11.590;2023-12-07T02:37:11;100424.94;;;2.30;86.52
80945;BME280;70400;50.934;11.590;2023-12-07T02:38:02;100420.50;;;2.32;86.96
80945;BME280;70400;50.934;11.590;2023-12-07T02:38:56;100418.72;;;2.32;86.75
80945;BME280;70400;50.934;11.590;2023-12-07T02:39:50;100422.56;;;2.25;86.75
80945;BME280;70400;50.934;11.590;2023-12-07T02:40:44;100425.94;;;2.27;87.25
80945;BME280;70400;50.934;11.590;2023-12-07T02:41:36;100431.38;;;2.23;87.44
80945;BME280;70400;50.934;11.590;2023-12-07T02:42:27;100426.84;;;2.26;88.06
80945;BME280;70400;50.934;11.590;2023-12-07T02:43:18;100424.22;;;2.26;87.59
80945;BME280;70400;50.934;11.590;2023-12-07T02:44:09;100424.00;;;2.31;87.33
80945;BME280;70400;50.934;11.590;2023-12-07T02:45:03;100422.59;;;2.41;86.72
80945;BME280;70400;50.934;11.590;2023-12-07T02:45:54;100422.53;;;2.43;86.06
80945;BME280;70400;50.934;11.590;2023-12-07T02:46:44;100423.69;;;2.37;86.00
80945;BME280;70400;50.934;11.590;2023-12-07T02:47:36;100429.75;;;2.37;86.40
80945;BME280;70400;50.934;11.590;2023-12-07T02:48:27;100430.75;;;2.35;86.64
80945;BME280;70400;50.934;11.590;2023-12-07T02:49:20;100430.03;;;2.31;86.94
80945;BME280;70400;50.934;11.590;2023-12-07T02:50:11;100424.38;;;2.41;86.49
80945;BME280;70400;50.934;11.590;2023-12-07T02:51:03;100433.19;;;2.38;86.04
80945;BME280;70400;50.934;11.590;2023-12-07T02:51:53;100431.56;;;2.35;86.52
80945;BME280;70400;50.934;11.590;2023-12-07T02:52:44;100424.69;;;2.34;86.58
80945;BME280;70400;50.934;11.590;2023-12-07T02:53:36;100427.13;;;2.37;86.33
80945;BME280;70400;50.934;11.590;2023-12-07T02:54:27;100434.78;;;2.41;86.46
80945;BME280;70400;50.934;11.590;2023-12-07T02:55:18;100425.72;;;2.48;86.08
80945;BME280;70400;50.934;11.590;2023-12-07T02:56:08;100428.00;;;2.54;85.06
80945;BME280;70400;50.934;11.590;2023-12-07T02:56:59;100427.34;;;2.50;84.49
80945;BME280;70400;50.934;11.590;2023-12-07T02:57:50;100439.66;;;2.47;84.89
80945;BME280;70400;50.934;11.590;2023-12-07T02:58:42;100433.84;;;2.42;86.07
80945;BME280;70400;50.934;11.590;2023-12-07T02:59:33;100439.22;;;2.38;85.95
80945;BME280;70400;50.934;11.590;2023-12-07T03:00:23;100437.97;;;2.46;85.72
80945;BME280;70400;50.934;11.590;2023-12-07T03:01:15;100441.66;;;2.42;85.99
80945;BME280;70400;50.934;11.590;2023-12-07T03:02:06;100446.19;;;2.38;86.14
80945;BME280;70400;50.934;11.590;2023-12-07T03:02:56;100440.91;;;2.39;85.99
80945;BME280;70400;50.934;11.590;2023-12-07T03:03:47;100445.53;;;2.34;85.79
80945;BME280;70400;50.934;11.590;2023-12-07T03:04:38;100441.97;;;2.35;85.98
80945;BME280;70400;50.934;11.590;2023-12-07T03:05:29;100447.34;;;2.32;86.00
80945;BME280;70400;50.934;11.590;2023-12-07T03:06:20;100442.97;;;2.33;86.30
80945;BME280;70400;50.934;11.590;2023-12-07T03:07:11;100444.66;;;2.34;86.55
80945;BME280;70400;50.934;11.590;2023-12-07T03:08:02;100449.84;;;2.34;86.94
80945;BME280;70400;50.934;11.590;2023-12-07T03:08:53;100450.03;;;2.31;87.13
80945;BME280;70400;50.934;11.590;2023-12-07T03:09:44;100436.00;;;2.33;87.05
80945;BME280;70400;50.934;11.590;2023-12-07T03:10:35;100442.16;;;2.32;87.44
80945;BME280;70400;50.934;11.590;2023-12-07T03:11:26;100440.53;;;2.30;87.30
80945;BME280;70400;50.934;11.590;2023-12-07T03:12:16;100435.13;;;2.34;87.45
80945;BME280;70400;50.934;11.590;2023-12-07T03:13:07;100449.31;;;2.45;87.41
80945;BME280;70400;50.934;11.590;2023-12-07T03:13:58;100440.53;;;2.47;87.23
80945;BME280;70400;50.934;11.590;2023-12-07T03:14:49;100443.13;;;2.47;87.46
80945;BME280;70400;50.934;11.590;2023-12-07T03:15:40;100451.00;;;2.46;87.09
80945;BME280;70400;50.934;11.590;2023-12-07T03:16:31;100448.72;;;2.39;87.20
80945;BME280;70400;50.934;11.590;2023-12-07T03:17:21;100446.03;;;2.41;87.26
80945;BME280;70400;50.934;11.590;2023-12-07T03:18:12;100446.03;;;2.41;87.17
80945;BME280;70400;50.934;11.590;2023-12-07T03:19:03;100458.75;;;2.47;86.86
80945;BME280;70400;50.934;11.590;2023-12-07T03:19:54;100453.59;;;2.46;86.98
80945;BME280;70400;50.934;11.590;2023-12-07T03:20:45;100450.94;;;2.47;86.62
80945;BME280;70400;50.934;11.590;2023-12-07T03:21:40;100454.59;;;2.43;86.28
80945;BME280;70400;50.934;11.590;2023-12-07T03:22:31;100451.16;;;2.43;86.25
80945;BME280;70400;50.934;11.590;2023-12-07T03:23:22;100446.84;;;2.42;85.98
80945;BME280;70400;50.934;11.590;2023-12-07T03:24:12;100448.56;;;2.43;86.31
80945;BME280;70400;50.934;11.590;2023-12-07T03:25:03;100451.22;;;2.41;86.60
80945;BME280;70400;50.934;11.590;2023-12-07T03:25:54;100450.41;;;2.41;86.46
80945;BME280;70400;50.934;11.590;2023-12-07T03:26:45;100448.78;;;2.38;86.89
80945;BME280;70400;50.934;11.590;2023-12-07T03:27:36;100446.13;;;2.39;87.36
80945;BME280;70400;50.934;11.590;2023-12-07T03:28:27;100454.00;;;2.38;86.97
80945;BME280;70400;50.934;11.590;2023-12-07T03:29:19;100451.31;;;2.39;87.25
80945;BME280;70400;50.934;11.590;2023-12-07T03:30:10;100455.66;;;2.39;87.29
80945;BME280;70400;50.934;11.590;2023-12-07T03:31:01;100457.28;;;2.42;86.82
80945;BME280;70400;50.934;11.590;2023-12-07T03:31:52;100446.25;;;2.36;86.43
80945;BME280;70400;50.934;11.590;2023-12-07T03:32:43;100458.38;;;2.37;86.88
80945;BME280;70400;50.934;11.590;2023-12-07T03:33:34;100454.94;;;2.37;86.78
80945;BME280;70400;50.934;11.590;2023-12-07T03:34:25;100459.75;;;2.27;87.37
80945;BME280;70400;50.934;11.590;2023-12-07T03:35:16;100463.88;;;2.31;87.64
80945;BME280;70400;50.934;11.590;2023-12-07T03:36:11;100464.13;;;2.27;87.70
80945;BME280;70400;50.934;11.590;2023-12-07T03:37:02;100458.75;;;2.30;87.87
80945;BME280;70400;50.934;11.590;2023-12-07T03:37:53;100464.97;;;2.27;87.77
80945;BME280;70400;50.934;11.590;2023-12-07T03:38:44;100458.44;;;2.36;87.43
80945;BME280;70400;50.934;11.590;2023-12-07T03:39:35;100460.56;;;2.45;87.19
80945;BME280;70400;50.934;11.590;2023-12-07T03:40:26;100459.97;;;2.40;87.33
80945;BME280;70400;50.934;11.590;2023-12-07T03:41:17;100453.94;;;2.39;87.25
80945;BME280;70400;50.934;11.590;2023-12-07T03:42:08;100456.28;;;2.44;87.09
80945;BME280;70400;50.934;11.590;2023-12-07T03:43:19;100449.72;;;2.37;86.80
80945;BME280;70400;50.934;11.590;2023-12-07T03:44:11;100454.84;;;2.38;86.91
80945;BME280;70400;50.934;11.590;2023-12-07T03:45:03;100453.06;;;2.39;86.94
80945;BME280;70400;50.934;11.590;2023-12-07T03:45:53;100458.28;;;2.39;86.92
80945;BME280;70400;50.934;11.590;2023-12-07T03:46:44;100461.03;;;2.36;87.31
80945;BME280;70400;50.934;11.590;2023-12-07T03:47:36;100461.19;;;2.33;87.42
80945;BME280;70400;50.934;11.590;2023-12-07T03:48:26;100456.06;;;2.31;87.16
80945;BME280;70400;50.934;11.590;2023-12-07T03:49:17;100460.97;;;2.37;87.21
80945;BME280;70400;50.934;11.590;2023-12-07T03:50:08;100466.47;;;2.31;87.30
80945;BME280;70400;50.934;11.590;2023-12-07T03:50:59;100457.75;;;2.32;87.33
80945;BME280;70400;50.934;11.590;2023-12-07T03:51:50;100456.28;;;2.44;87.13
80945;BME280;70400;50.934;11.590;2023-12-07T03:52:41;100460.19;;;2.35;86.91
80945;BME280;70400;50.934;11.590;2023-12-07T03:53:32;100457.59;;;2.35;87.10
80945;BME280;70400;50.934;11.590;2023-12-07T03:54:23;100459.00;;;2.25;87.79
80945;BME280;70400;50.934;11.590;2023-12-07T03:55:14;100460.38;;;2.32;87.12
80945;BME280;70400;50.934;11.590;2023-12-07T03:56:05;100460.38;;;2.32;87.27
80945;BME280;70400;50.934;11.590;2023-12-07T03:56:56;100463.97;;;2.30;87.27
80945;BME280;70400;50.934;11.590;2023-12-07T03:57:47;100461.59;;;2.25;87.81
80945;BME280;70400;50.934;11.590;2023-12-07T03:58:38;100466.81;;;2.25;87.67
80945;BME280;70400;50.934;11.590;2023-12-07T03:59:29;100466.19;;;2.20;87.51
80945;BME280;70400;50.934;11.590;2023-12-07T04:00:20;100467.19;;;2.17;87.78
80945;BME280;70400;50.934;11.590;2023-12-07T04:01:12;100468.03;;;2.18;87.71
80945;BME280;70400;50.934;11.590;2023-12-07T04:02:03;100467.25;;;2.16;87.66
80945;BME280;70400;50.934;11.590;2023-12-07T04:02:53;100466.19;;;2.20;87.25
80945;BME280;70400;50.934;11.590;2023-12-07T04:03:44;100468.72;;;2.22;87.52
80945;BME280;70400;50.934;11.590;2023-12-07T04:04:37;100464.19;;;2.25;87.50
80945;BME280;70400;50.934;11.590;2023-12-07T04:05:29;100462.53;;;2.24;87.66
80945;BME280;70400;50.934;11.590;2023-12-07T04:06:23;100468.78;;;2.20;87.63
80945;BME280;70400;50.934;11.590;2023-12-07T04:07:14;100465.19;;;2.23;87.84
80945;BME280;70400;50.934;11.590;2023-12-07T04:08:05;100469.25;;;2.28;87.99
80945;BME280;70400;50.934;11.590;2023-12-07T04:08:55;100473.78;;;2.25;88.20
80945;BME280;70400;50.934;11.590;2023-12-07T04:09:46;100469.06;;;2.31;88.49
80945;BME280;70400;50.934;11.590;2023-12-07T04:10:37;100470.06;;;2.46;87.66
80945;BME280;70400;50.934;11.590;2023-12-07T04:11:28;100463.69;;;2.52;86.88
80945;BME280;70400;50.934;11.590;2023-12-07T04:12:19;100459.25;;;2.54;86.28
80945;BME280;70400;50.934;11.590;2023-12-07T04:13:10;100466.16;;;2.55;85.42
80945;BME280;70400;50.934;11.590;2023-12-07T04:14:01;100469.44;;;2.41;85.33
80945;BME280;70400;50.934;11.590;2023-12-07T04:14:52;100470.06;;;2.46;84.89
80945;BME280;70400;50.934;11.590;2023-12-07T04:15:43;100466.44;;;2.49;84.48
80945;BME280;70400;50.934;11.590;2023-12-07T04:16:34;100470.88;;;2.47;84.96
80945;BME280;70400;50.934;11.590;2023-12-07T04:17:25;100472.75;;;2.45;84.64
80945;BME280;70400;50.934;11.590;2023-12-07T04:18:17;100471.22;;;2.41;84.51
80945;BME280;70400;50.934;11.590;2023-12-07T04:19:08;100472.88;;;2.42;84.53
80945;BME280;70400;50.934;11.590;2023-12-07T04:19:59;100471.22;;;2.41;84.74
80945;BME280;70400;50.934;11.590;2023-12-07T04:20:50;100465.25;;;2.38;84.00
80945;BME280;70400;50.934;11.590;2023-12-07T04:21:40;100464.41;;;2.38;84.27
80945;BME280;70400;50.934;11.590;2023-12-07T04:22:31;100461.19;;;2.50;83.55
80945;BME280;70400;50.934;11.590;2023-12-07T04:23:22;100469.38;;;2.43;83.57
80945;BME280;70400;50.934;11.590;2023-12-07T04:24:13;100479.19;;;2.37;84.26
80945;BME280;70400;50.934;11.590;2023-12-07T04:25:04;100466.06;;;2.39;83.66
80945;BME280;70400;50.934;11.590;2023-12-07T04:25:55;100476.59;;;2.37;83.65
80945;BME280;70400;50.934;11.590;2023-12-07T04:26:46;100485.00;;;2.43;83.96
80945;BME280;70400;50.934;11.590;2023-12-07T04:27:37;100478.03;;;2.43;83.78
80945;BME280;70400;50.934;11.590;2023-12-07T04:28:28;100477.19;;;2.43;83.44
80945;BME280;70400;50.934;11.590;2023-12-07T04:29:19;100482.22;;;2.46;83.47
80945;BME280;70400;50.934;11.590;2023-12-07T04:30:10;100483.00;;;2.48;84.15
80945;BME280;70400;50.934;11.590;2023-12-07T04:31:01;100483.91;;;2.47;84.71
80945;BME280;70400;50.934;11.590;2023-12-07T04:31:52;100480.22;;;2.51;84.69
80945;BME280;70400;50.934;11.590;2023-12-07T04:32:42;100474.09;;;2.52;84.48